Crawfordsville, Arkansas
Current Conditions -  °F | °C
As of 6:53 AM on Thursday 23 Oct 2014 (Local Time) from KAWM Reporting Station
Clear Clear  
Wind Chill: 42°   Ceiling: Unl
Heat Index: 42°   Visibility: 10mi
Dew Point: 42°   Wind: 3mph
Humidity: 100%   Direction: 340°NNW
Pressure: 30.19"   Gusts: NA
Location:  35.23°N, 90.33°W
Report Text: KAWM 231153Z AUTO 34003KT 10SM CLR 06/06 A3019 RMK AO2 SLP224 T00560056 10089 20056 53008
Loading
Personal Weather Stations






























Interactive Weather Map
Tropical Storm Tracking
New forecast layout! Learn more

10-Day Weather Forecast

Advertisements
Track Severe Weather on mobile